Liberty Grace — WADN — position and weather

sailwx.info

Track history (hours):
 
Tides and Currents Weather Stations Pressure Air Temp Water Temp Dewpoint Dewpoint Depression Visibility Wind Speed Wind Dir Waves Ship Positions

Liberty Grace

Owner: Liberty Shipping Group, LLC, LAKE SUCCESS, NY. More information available from US FCC via Universal Licensing System and Coast Guard Vessel Documentation Center.

Last reported at 2015-Feb-17 12:00 UTC. Time now 2015-Feb-27 11:40 UTC.
Position S 26°36' W 001°48'.
Warning: this ship's position is 9 days out of date.

Type: Cargo ship. MMSI: 338219000.

Wind from 140 at 11 knots

Waves 0.5 meters (2 feet), 2 second period

Barometer 1018.8 mb
Air temperature 24.0 ° C
Visibility: greater than 10.8 NM
Dewpoint 17.7 ° C
Water temperature 26.0 ° C

Date/timePositionNaut miles runAvg speedWind from/ knotsBaromVisibWave heightAir tempDewpointWater temp
2015-Feb-17 12:00S 26°36' W 001°48'   140 / 111018.810.8 0.524.017.726.0
2015-Feb-12 22:31S 34°29' E 024°45'1312.7
2015-Feb-12 21:29S 34°27' E 025°01'38214.7
2015-Feb-11 19:32S 30°28' E 030°54'1414.4
2015-Feb-11 18:33S 30°17' E 031°04'1413.7
2015-Feb-11 17:33S 30°06' E 031°14'1010.3
2015-Feb-11 16:33S 29°56' E 031°12'8 7.6
2015-Feb-11 15:33S 29°51' E 031°05'3 3.3
2015-Feb-11 14:33S 29°52' E 031°02'0 0.0
2015-Feb-11 13:30S 29°52' E 031°02'0 0.0
2015-Feb-11 12:30S 29°52' E 031°02'0 0.0
2015-Feb-11 11:30S 29°52' E 031°02'0 0.0
2015-Feb-11 10:30S 29°52' E 031°02'0 0.0
2015-Feb-11 09:30S 29°52' E 031°02'0 0.0
2015-Feb-11 08:30S 29°52' E 031°02'0 0.0
2015-Feb-11 07:30S 29°52' E 031°02'0 0.0
2015-Feb-11 06:30S 29°52' E 031°02'0 0.0
2015-Feb-11 05:30S 29°52' E 031°02'0 0.0
2015-Feb-11 04:30S 29°52' E 031°02'0 0.0
2015-Feb-11 03:30S 29°52' E 031°02'0 0.0
2015-Feb-11 02:30S 29°52' E 031°02'0 0.0
2015-Feb-11 01:30S 29°52' E 031°02'0 0.0
2015-Feb-11 00:30S 29°52' E 031°02'0 0.0
2015-Feb-10 23:30S 29°52' E 031°02'0 0.0
2015-Feb-10 22:33S 29°52' E 031°02'5 4.9
2015-Feb-10 21:33S 29°50' E 031°07'2 2.2
2015-Feb-10 20:33S 29°48' E 031°09'1 1.0
2015-Feb-10 19:33S 29°48' E 031°10'8 7.9
2015-Feb-10 18:33S 29°46' E 031°19'6 6.5
2015-Feb-10 17:33S 29°44' E 031°26'1111.3
2015-Feb-10 16:33S 29°39' E 031°37'1515.2
2015-Feb-10 15:33S 29°31' E 031°52'1615.6
2015-Feb-10 14:33S 29°20' E 032°05'1515.1
2015-Feb-10 13:33S 29°09' E 032°17'1514.9
2015-Feb-10 12:33S 28°55' E 032°23'3014.7
2015-Feb-10 10:32S 28°31' E 032°42'  
Track history (hours):
 
Tides and Currents Weather Stations Pressure Air Temp Water Temp Dewpoint Dewpoint Depression Visibility Wind Speed Wind Dir Waves Ship Positions

Liberty Grace

Owner: Liberty Shipping Group, LLC, LAKE SUCCESS, NY. More information available from US FCC via Universal Licensing System and Coast Guard Vessel Documentation Center.

Last reported at 2015-Feb-17 12:00 UTC. Time now 2015-Feb-27 11:40 UTC.
Position S 26°36' W 001°48'.
Warning: this ship's position is 9 days out of date.

Type: Cargo ship. MMSI: 338219000.

Wind from 140 at 11 knots

Waves 0.5 meters (2 feet), 2 second period

Barometer 1018.8 mb
Air temperature 24.0 ° C
Visibility: greater than 10.8 NM
Dewpoint 17.7 ° C
Water temperature 26.0 ° C

Date/timePositionNaut miles runAvg speedWind from/ knotsBaromVisibWave heightAir tempDewpointWater temp
2015-Feb-17 12:00S 26°36' W 001°48'   140 / 111018.810.8 0.524.017.726.0
2015-Feb-12 22:31S 34°29' E 024°45'1312.7
2015-Feb-12 21:29S 34°27' E 025°01'38214.7
2015-Feb-11 19:32S 30°28' E 030°54'1414.4
2015-Feb-11 18:33S 30°17' E 031°04'1413.7
2015-Feb-11 17:33S 30°06' E 031°14'1010.3
2015-Feb-11 16:33S 29°56' E 031°12'8 7.6
2015-Feb-11 15:33S 29°51' E 031°05'3 3.3
2015-Feb-11 14:33S 29°52' E 031°02'0 0.0
2015-Feb-11 13:30S 29°52' E 031°02'0 0.0
2015-Feb-11 12:30S 29°52' E 031°02'0 0.0
2015-Feb-11 11:30S 29°52' E 031°02'0 0.0
2015-Feb-11 10:30S 29°52' E 031°02'0 0.0
2015-Feb-11 09:30S 29°52' E 031°02'0 0.0
2015-Feb-11 08:30S 29°52' E 031°02'0 0.0
2015-Feb-11 07:30S 29°52' E 031°02'0 0.0
2015-Feb-11 06:30S 29°52' E 031°02'0 0.0
2015-Feb-11 05:30S 29°52' E 031°02'0 0.0
2015-Feb-11 04:30S 29°52' E 031°02'0 0.0
2015-Feb-11 03:30S 29°52' E 031°02'0 0.0
2015-Feb-11 02:30S 29°52' E 031°02'0 0.0
2015-Feb-11 01:30S 29°52' E 031°02'0 0.0
2015-Feb-11 00:30S 29°52' E 031°02'0 0.0
2015-Feb-10 23:30S 29°52' E 031°02'0 0.0
2015-Feb-10 22:33S 29°52' E 031°02'5 4.9
2015-Feb-10 21:33S 29°50' E 031°07'2 2.2
2015-Feb-10 20:33S 29°48' E 031°09'1 1.0
2015-Feb-10 19:33S 29°48' E 031°10'8 7.9
2015-Feb-10 18:33S 29°46' E 031°19'6 6.5
2015-Feb-10 17:33S 29°44' E 031°26'1111.3
2015-Feb-10 16:33S 29°39' E 031°37'1515.2
2015-Feb-10 15:33S 29°31' E 031°52'1615.6
2015-Feb-10 14:33S 29°20' E 032°05'1515.1
2015-Feb-10 13:33S 29°09' E 032°17'1514.9
2015-Feb-10 12:33S 28°55' E 032°23'3014.7
2015-Feb-10 10:32S 28°31' E 032°42'  

Dump ship's entire track history